createdAt,value
2018-10-07T00:01:33.264Z,42.87
2018-10-07T00:04:03.466Z,39.83
2018-10-07T00:06:33.388Z,32.50
2018-10-07T00:09:04.241Z,18.53
2018-10-07T00:11:34.475Z,29.70
2018-10-07T00:14:05.087Z,127.50
2018-10-07T00:16:34.966Z,34.40
2018-10-07T00:19:04.590Z,102.03
2018-10-07T00:21:34.886Z,101.07
2018-10-07T00:24:04.848Z,40.37
2018-10-07T00:26:37.422Z,88.57
2018-10-07T00:29:10.600Z,25.27
2018-10-07T00:31:45.351Z,35.73
2018-10-07T00:34:15.867Z,49.77
2018-10-07T00:36:46.209Z,45.77
2018-10-07T00:39:15.808Z,53.73
2018-10-07T00:41:45.383Z,31.67
2018-10-07T00:44:15.740Z,82.70
2018-10-07T00:46:47.625Z,160.20
2018-10-07T00:49:32.392Z,59.67
2018-10-07T00:52:01.814Z,75.67
2018-10-07T00:54:30.922Z,54.00
2018-10-07T00:57:00.183Z,59.10
2018-10-07T00:59:29.662Z,90.83
2018-10-07T01:01:58.952Z,75.30
2018-10-07T01:04:28.109Z,88.83
2018-10-07T01:06:57.754Z,80.10
2018-10-07T01:09:27.511Z,86.17
2018-10-07T01:11:57.876Z,89.23
2018-10-07T01:14:27.850Z,93.67
2018-10-07T01:16:58.211Z,83.40
2018-10-07T01:19:27.840Z,87.80
2018-10-07T01:21:57.608Z,86.77
2018-10-07T01:24:26.940Z,95.17
2018-10-07T01:27:09.297Z,92.50
2018-10-07T01:29:45.194Z,101.80
2018-10-07T01:32:19.476Z,108.37
2018-10-07T01:34:48.911Z,98.13
2018-10-07T01:37:18.366Z,98.83
2018-10-07T01:39:47.266Z,97.73
2018-10-07T01:42:16.526Z,108.93
2018-10-07T01:44:46.121Z,116.93
2018-10-07T01:47:15.381Z,106.40
2018-10-07T01:49:50.319Z,133.67
2018-10-07T01:52:20.450Z,102.30
2018-10-07T01:54:49.668Z,106.70
2018-10-07T01:57:19.062Z,107.13
2018-10-07T01:59:49.915Z,120.17
2018-10-07T02:02:19.178Z,118.47
2018-10-07T02:04:48.569Z,127.43
2018-10-07T02:07:20.210Z,108.80
2018-10-07T02:09:49.860Z,112.77
2018-10-07T02:12:18.914Z,115.27
2018-10-07T02:14:55.698Z,118.00
2018-10-07T02:17:24.861Z,113.90
2018-10-07T02:19:54.028Z,141.53
2018-10-07T02:22:23.915Z,132.63
2018-10-07T02:24:53.525Z,121.50
2018-10-07T02:27:23.152Z,98.27
2018-10-07T02:29:52.500Z,167.60
2018-10-07T02:32:22.672Z,135.47
2018-10-07T02:34:51.798Z,125.47
2018-10-07T02:37:21.197Z,107.90
2018-10-07T02:39:57.898Z,102.87
2018-10-07T02:42:27.075Z,112.20
2018-10-07T02:44:56.441Z,107.30
2018-10-07T02:47:27.018Z,109.77
2018-10-07T02:49:56.637Z,114.77
2018-10-07T02:52:31.069Z,117.57
2018-10-07T02:55:01.216Z,111.27
2018-10-07T02:57:31.478Z,119.33
2018-10-07T03:00:00.740Z,119.90
2018-10-07T03:02:29.974Z,114.57
2018-10-07T03:04:59.187Z,107.87
2018-10-07T03:08:00.737Z,111.70
2018-10-07T03:10:29.688Z,110.10
2018-10-07T03:12:58.729Z,123.70
2018-10-07T03:15:27.982Z,109.17
2018-10-07T03:17:57.333Z,111.77
2018-10-07T03:20:26.757Z,112.07
2018-10-07T03:22:55.919Z,113.13
2018-10-07T03:25:25.126Z,114.67
2018-10-07T03:27:56.922Z,110.67
2018-10-07T03:30:25.994Z,113.60
2018-10-07T03:32:55.549Z,128.57
2018-10-07T03:35:24.791Z,117.70
2018-10-07T03:37:54.058Z,118.33
2018-10-07T03:40:23.272Z,116.87
2018-10-07T03:42:52.218Z,116.20
2018-10-07T03:45:21.708Z,114.20
2018-10-07T03:47:51.523Z,111.87
2018-10-07T03:50:21.568Z,112.67
2018-10-07T03:52:51.978Z,116.10
2018-10-07T03:55:30.989Z,110.20
2018-10-07T03:58:10.043Z,100.47
2018-10-07T04:00:39.388Z,109.90
2018-10-07T04:03:08.597Z,110.20
2018-10-07T04:05:40.219Z,101.60
2018-10-07T04:08:12.041Z,110.87
2018-10-07T04:10:41.151Z,104.43
2018-10-07T04:13:10.208Z,109.13
2018-10-07T04:15:39.529Z,108.40
2018-10-07T04:18:08.846Z,105.10
2018-10-07T04:20:37.988Z,98.30
2018-10-07T04:23:07.792Z,101.13
2018-10-07T04:25:36.805Z,103.33
2018-10-07T04:28:06.008Z,103.50
2018-10-07T04:30:35.197Z,104.70
2018-10-07T04:33:04.530Z,102.67
2018-10-07T04:35:33.580Z,105.10
2018-10-07T04:38:02.487Z,104.37
2018-10-07T04:40:31.376Z,94.70
2018-10-07T04:43:00.311Z,101.87
2018-10-07T04:45:29.229Z,102.20
2018-10-07T04:47:58.221Z,97.93
2018-10-07T04:50:27.740Z,102.33
2018-10-07T04:52:56.676Z,100.20
2018-10-07T04:55:26.310Z,95.63
2018-10-07T04:57:55.536Z,97.33
2018-10-07T05:00:24.757Z,95.97
2018-10-07T05:02:54.090Z,104.87
2018-10-07T05:05:23.170Z,92.57
2018-10-07T05:07:52.187Z,94.90
2018-10-07T05:10:56.730Z,85.37
2018-10-07T05:13:57.365Z,91.23
2018-10-07T05:16:36.130Z,80.33
2018-10-07T05:19:05.577Z,81.23
2018-10-07T05:21:34.749Z,74.83
2018-10-07T05:24:03.736Z,62.67
2018-10-07T05:26:32.799Z,56.77
2018-10-07T05:29:03.226Z,55.13
2018-10-07T05:31:32.363Z,47.73
2018-10-07T05:34:01.405Z,43.50
2018-10-07T05:36:30.841Z,42.50
2018-10-07T05:38:59.939Z,39.50
2018-10-07T05:41:29.169Z,37.00
2018-10-07T05:43:58.400Z,32.53
2018-10-07T05:46:27.536Z,34.57
2018-10-07T05:48:56.532Z,29.90
2018-10-07T05:51:25.550Z,27.37
2018-10-07T05:53:55.910Z,30.10
2018-10-07T05:56:25.061Z,25.53
2018-10-07T05:58:55.906Z,24.67
2018-10-07T06:01:41.513Z,23.30
2018-10-07T06:04:23.067Z,22.07
2018-10-07T06:06:53.340Z,22.20
2018-10-07T06:09:27.219Z,20.73
2018-10-07T06:11:57.278Z,20.30
2018-10-07T06:14:37.370Z,18.80
2018-10-07T06:17:07.011Z,17.43
2018-10-07T06:19:37.031Z,18.43
2018-10-07T06:22:06.511Z,17.80
2018-10-07T06:24:37.013Z,15.93
2018-10-07T06:27:07.257Z,16.83
2018-10-07T06:29:38.260Z,17.90
2018-10-07T06:32:07.251Z,18.60
2018-10-07T06:34:38.792Z,15.60
2018-10-07T06:37:09.335Z,15.97
2018-10-07T06:39:40.375Z,15.20
2018-10-07T06:42:11.503Z,18.00
2018-10-07T06:44:43.841Z,15.57
2018-10-07T06:47:14.433Z,16.17
2018-10-07T06:49:44.042Z,16.53
2018-10-07T06:52:14.924Z,17.43
2018-10-07T06:54:46.479Z,17.13
2018-10-07T06:57:16.022Z,18.80
2018-10-07T06:59:46.421Z,22.60
2018-10-07T07:02:15.611Z,24.60
2018-10-07T07:04:44.670Z,19.90
2018-10-07T07:07:14.521Z,23.43
2018-10-07T07:09:45.101Z,22.63
2018-10-07T07:12:15.823Z,23.17
2018-10-07T07:14:45.058Z,24.07
2018-10-07T07:17:14.455Z,27.70
2018-10-07T07:19:43.660Z,25.90
2018-10-07T07:22:13.290Z,26.90
2018-10-07T07:24:43.655Z,23.07
2018-10-07T07:27:12.606Z,24.90
2018-10-07T07:29:42.104Z,22.03
2018-10-07T07:32:13.310Z,20.63
2018-10-07T07:34:43.751Z,21.73
2018-10-07T07:37:12.842Z,22.00
2018-10-07T07:39:42.404Z,23.90
2018-10-07T07:42:11.868Z,21.47
2018-10-07T07:44:41.867Z,22.80
2018-10-07T07:47:11.487Z,22.60
2018-10-07T07:49:41.623Z,20.27
2018-10-07T07:52:12.477Z,18.07
2018-10-07T07:54:41.552Z,16.80
2018-10-07T07:57:13.366Z,17.37
2018-10-07T07:59:43.360Z,17.97
2018-10-07T08:02:12.274Z,18.10
2018-10-07T08:04:50.968Z,19.80
2018-10-07T08:07:20.576Z,15.20
2018-10-07T08:09:50.190Z,18.47
2018-10-07T08:12:19.180Z,19.43
2018-10-07T08:14:51.225Z,17.73
2018-10-07T08:17:20.673Z,19.97
2018-10-07T08:19:50.427Z,21.87
2018-10-07T08:22:20.088Z,20.30
2018-10-07T08:24:49.370Z,21.30
2018-10-07T08:27:20.383Z,20.30
2018-10-07T08:29:49.629Z,19.87
2018-10-07T08:32:18.918Z,19.87
2018-10-07T08:34:48.654Z,18.67
2018-10-07T08:37:18.721Z,19.30
2018-10-07T08:39:50.021Z,16.90
2018-10-07T08:42:20.284Z,16.73
2018-10-07T08:44:49.465Z,16.37
2018-10-07T08:47:20.485Z,15.80
2018-10-07T08:49:52.399Z,17.70
2018-10-07T08:52:22.688Z,15.23
2018-10-07T08:54:55.451Z,14.33
2018-10-07T08:57:26.984Z,15.27
2018-10-07T08:59:56.239Z,12.70
2018-10-07T09:02:46.002Z,13.20
2018-10-07T09:05:22.561Z,10.17
2018-10-07T09:07:52.062Z,8.20
2018-10-07T09:10:21.540Z,6.90
2018-10-07T09:12:52.570Z,5.73
2018-10-07T09:15:22.462Z,6.27
2018-10-07T09:17:53.713Z,6.07
2018-10-07T09:20:23.468Z,5.57
2018-10-07T09:22:53.181Z,5.67
2018-10-07T09:25:22.497Z,4.50
2018-10-07T09:27:56.078Z,4.00
2018-10-07T09:30:26.453Z,3.93
2018-10-07T09:32:56.276Z,5.30
2018-10-07T09:35:26.240Z,4.40
2018-10-07T09:37:56.929Z,5.30
2018-10-07T09:40:26.485Z,3.70
2018-10-07T09:42:55.560Z,4.80
2018-10-07T09:45:36.551Z,4.57
2018-10-07T09:48:08.307Z,4.03
2018-10-07T09:50:37.836Z,4.27
2018-10-07T09:53:07.412Z,5.03
2018-10-07T09:55:39.034Z,3.77
2018-10-07T09:58:08.087Z,5.03
2018-10-07T10:00:41.272Z,4.07
2018-10-07T10:03:13.349Z,3.40
2018-10-07T10:05:42.623Z,4.50
2018-10-07T10:08:13.012Z,4.40
2018-10-07T10:10:46.067Z,4.50
2018-10-07T10:13:16.193Z,4.40
2018-10-07T10:15:46.204Z,4.07
2018-10-07T10:18:23.131Z,4.00
2018-10-07T10:20:58.684Z,3.97
2018-10-07T10:24:38.373Z,4.10
2018-10-07T10:27:15.989Z,4.50
2018-10-07T10:29:50.539Z,3.70
2018-10-07T10:32:46.629Z,4.90
2018-10-07T10:35:59.638Z,5.03
2018-10-07T10:39:07.826Z,4.57
2018-10-07T10:41:41.842Z,4.23
2018-10-07T10:44:21.524Z,4.70
2018-10-07T10:47:04.466Z,4.60
2018-10-07T10:49:57.669Z,3.37
2018-10-07T10:53:47.463Z,4.20
2018-10-07T10:56:22.194Z,3.43
2018-10-07T11:01:07.770Z,3.30
2018-10-07T11:06:00.050Z,3.27
2018-10-07T11:09:19.090Z,5.30
2018-10-07T11:12:00.830Z,4.20
2018-10-07T11:15:25.729Z,3.10
2018-10-07T11:18:07.329Z,3.43
2018-10-07T11:21:52.928Z,3.20
2018-10-07T11:24:33.742Z,3.20
2018-10-07T11:27:13.701Z,3.70
2018-10-07T11:29:55.226Z,3.90
2018-10-07T11:36:43.093Z,3.70
2018-10-07T11:39:24.628Z,2.67
2018-10-07T11:42:16.564Z,3.23
2018-10-07T11:45:32.039Z,4.40
2018-10-07T11:48:12.397Z,3.03
2018-10-07T11:50:51.785Z,3.37
2018-10-07T11:53:54.043Z,1.90
2018-10-07T11:56:25.078Z,2.80
2018-10-07T11:59:03.690Z,3.37
2018-10-07T12:01:35.202Z,6.63
2018-10-07T12:04:05.464Z,2.50
2018-10-07T12:06:35.254Z,4.57
2018-10-07T12:09:05.963Z,4.47
2018-10-07T12:11:35.719Z,3.17
2018-10-07T12:14:09.206Z,4.50
2018-10-07T12:16:44.124Z,2.03
2018-10-07T12:19:14.802Z,1.80
2018-10-07T12:21:48.097Z,2.00
2018-10-07T12:24:22.540Z,3.30
2018-10-07T12:26:55.960Z,2.70
2018-10-07T12:29:37.384Z,3.40
2018-10-07T12:32:07.645Z,2.20
2018-10-07T12:34:46.300Z,4.33
2018-10-07T12:37:18.856Z,1.90
2018-10-07T12:39:57.220Z,5.50
2018-10-07T12:42:28.433Z,2.63
2018-10-07T12:44:58.595Z,3.63
2018-10-07T12:47:28.652Z,5.00
2018-10-07T12:49:59.661Z,3.40
2018-10-07T12:52:30.561Z,2.27
2018-10-07T12:55:00.199Z,2.73
2018-10-07T12:57:30.464Z,2.70
2018-10-07T13:00:04.192Z,6.10
2018-10-07T13:02:33.780Z,15.83
2018-10-07T13:05:06.297Z,4.10
2018-10-07T13:07:35.599Z,3.37
2018-10-07T13:10:05.619Z,2.17
2018-10-07T13:12:39.398Z,2.17
2018-10-07T13:15:10.677Z,8.10
2018-10-07T13:17:44.162Z,8.30
2018-10-07T13:20:17.637Z,6.80
2018-10-07T13:22:50.106Z,3.20
2018-10-07T13:25:21.769Z,2.27
2018-10-07T13:27:54.299Z,4.30
2018-10-07T13:30:33.564Z,1.93
2018-10-07T13:33:08.884Z,2.40
2018-10-07T13:35:40.784Z,1.70
2018-10-07T13:38:16.492Z,2.50
2018-10-07T13:40:55.637Z,4.50
2018-10-07T13:43:28.108Z,2.97
2018-10-07T13:46:12.280Z,7.23
2018-10-07T13:48:44.153Z,2.40
2018-10-07T13:51:15.421Z,2.30
2018-10-07T13:53:46.054Z,1.57
2018-10-07T13:56:19.638Z,3.40
2018-10-07T13:58:55.813Z,1.97
2018-10-07T14:01:29.873Z,2.80
2018-10-07T14:04:14.484Z,2.47
2018-10-07T14:06:49.560Z,3.23
2018-10-07T14:09:24.594Z,2.93
2018-10-07T14:11:55.219Z,2.70
2018-10-07T14:14:27.869Z,3.70
2018-10-07T14:16:59.017Z,2.40
2018-10-07T14:19:39.947Z,2.93
2018-10-07T14:22:10.492Z,2.83
2018-10-07T14:24:44.510Z,4.00
2018-10-07T14:27:18.545Z,3.73
2018-10-07T14:29:50.785Z,3.83
2018-10-07T14:32:29.078Z,2.20
2018-10-07T14:35:09.663Z,2.03
2018-10-07T14:37:42.252Z,4.43
2018-10-07T14:40:13.652Z,7.57
2018-10-07T14:42:49.020Z,2.13
2018-10-07T14:45:19.445Z,12.07
2018-10-07T14:47:52.089Z,6.43
2018-10-07T14:50:23.178Z,4.53
2018-10-07T14:52:54.096Z,2.70
2018-10-07T14:55:24.316Z,2.97
2018-10-07T14:57:57.413Z,4.57
2018-10-07T15:00:35.973Z,4.00
2018-10-07T15:03:07.084Z,3.10
2018-10-07T15:05:38.641Z,2.70
2018-10-07T15:08:09.330Z,5.50
2018-10-07T15:10:38.701Z,4.90
2018-10-07T15:13:08.323Z,2.80
2018-10-07T15:15:39.341Z,3.30
2018-10-07T15:18:12.216Z,3.70
2018-10-07T15:20:43.165Z,4.50
2018-10-07T15:23:13.760Z,4.00
2018-10-07T15:25:44.778Z,3.90
2018-10-07T15:28:14.219Z,3.40
2018-10-07T15:30:48.935Z,3.60
2018-10-07T15:33:22.477Z,4.00
2018-10-07T15:35:54.749Z,4.77
2018-10-07T15:38:27.392Z,4.00
2018-10-07T15:40:57.265Z,4.57
2018-10-07T15:43:27.485Z,2.57
2018-10-07T15:45:57.173Z,14.43
2018-10-07T15:48:26.716Z,3.70
2018-10-07T15:50:57.012Z,2.67
2018-10-07T15:53:34.582Z,6.30
2018-10-07T15:56:04.244Z,4.70
2018-10-07T15:58:38.281Z,4.13
2018-10-07T16:01:08.940Z,8.63
2018-10-07T16:03:38.974Z,76.70
2018-10-07T16:06:08.676Z,3.83
2018-10-07T16:08:38.312Z,5.50
2018-10-07T16:11:17.462Z,6.67
2018-10-07T16:13:48.149Z,4.03
2018-10-07T16:16:18.940Z,5.00
2018-10-07T16:18:49.073Z,3.77
2018-10-07T16:21:19.038Z,6.00
2018-10-07T16:23:49.497Z,6.43
2018-10-07T16:26:19.405Z,5.10
2018-10-07T16:28:49.279Z,4.57
2018-10-07T16:31:19.415Z,3.97
2018-10-07T16:33:50.309Z,3.93
2018-10-07T16:36:21.390Z,4.50
2018-10-07T16:38:52.186Z,4.33
2018-10-07T16:41:21.330Z,3.47
2018-10-07T16:43:55.537Z,6.00
2018-10-07T16:46:26.712Z,6.50
2018-10-07T16:49:01.381Z,11.25
2018-10-07T16:51:31.609Z,35.37
2018-10-07T16:54:01.700Z,6.40
2018-10-07T16:56:32.177Z,4.83
2018-10-07T17:01:37.405Z,5.37
2018-10-07T17:04:11.270Z,4.30
2018-10-07T17:06:41.165Z,12.90
2018-10-07T17:09:12.190Z,5.70
2018-10-07T17:11:44.766Z,4.00
2018-10-07T17:14:17.184Z,3.63
2018-10-07T17:16:47.260Z,3.70
2018-10-07T17:19:19.042Z,93.43
2018-10-07T17:22:08.299Z,7.73
2018-10-07T17:24:59.057Z,5.90
2018-10-07T17:27:33.015Z,5.13
2018-10-07T17:30:09.891Z,4.10
2018-10-07T17:32:40.624Z,5.73
2018-10-07T17:35:16.295Z,4.53
2018-10-07T17:37:50.785Z,4.80
2018-10-07T17:40:22.301Z,6.80
2018-10-07T17:43:07.868Z,3.90
2018-10-07T17:46:42.825Z,9.17
2018-10-07T17:49:24.107Z,7.40
2018-10-07T17:51:59.273Z,6.20
2018-10-07T17:54:30.163Z,6.50
2018-10-07T17:57:07.690Z,8.13
2018-10-07T17:59:43.184Z,6.77
2018-10-07T18:02:13.591Z,5.60
2018-10-07T18:04:58.839Z,6.90
2018-10-07T18:07:29.772Z,9.07
2018-10-07T18:10:01.079Z,10.40
2018-10-07T18:12:33.079Z,8.57
2018-10-07T18:15:05.830Z,8.27
2018-10-07T18:17:36.532Z,12.70
2018-10-07T18:20:07.948Z,6.67
2018-10-07T18:22:39.640Z,11.63
2018-10-07T18:25:19.930Z,5.43
2018-10-07T18:27:55.095Z,5.10
2018-10-07T18:30:34.172Z,6.50
2018-10-07T18:33:09.701Z,5.07
2018-10-07T18:35:53.691Z,4.87
2018-10-07T18:38:31.953Z,5.13
2018-10-07T18:41:09.653Z,5.03
2018-10-07T18:43:46.253Z,5.60
2018-10-07T18:46:26.831Z,5.93
2018-10-07T18:49:10.763Z,4.43
2018-10-07T18:51:45.203Z,4.20
2018-10-07T18:54:21.523Z,10.60
2018-10-07T18:57:07.701Z,3.80
2018-10-07T18:59:46.570Z,3.37
2018-10-07T19:02:22.650Z,4.50
2018-10-07T19:04:54.194Z,5.03
2018-10-07T19:07:24.692Z,4.17
2018-10-07T19:09:57.474Z,4.10
2018-10-07T19:12:32.412Z,5.10
2018-10-07T19:15:03.586Z,5.10
2018-10-07T19:17:47.205Z,6.10
2018-10-07T19:20:18.559Z,6.20
2018-10-07T19:23:04.164Z,4.93
2018-10-07T19:25:52.210Z,7.07
2018-10-07T19:28:24.332Z,6.50
2018-10-07T19:32:27.021Z,9.30
2018-10-07T19:38:04.312Z,4.50
2018-10-07T19:40:41.037Z,12.73
2018-10-07T19:43:25.135Z,6.60
2018-10-07T19:45:57.436Z,5.70
2018-10-07T19:48:31.225Z,6.70
2018-10-07T19:51:11.311Z,5.80
2018-10-07T19:53:52.397Z,6.80
2018-10-07T19:56:26.914Z,7.00
2018-10-07T19:59:09.255Z,4.97
2018-10-07T20:01:46.552Z,4.27
2018-10-07T20:04:18.457Z,4.80
2018-10-07T20:06:48.824Z,5.17
2018-10-07T20:09:21.634Z,4.40
2018-10-07T20:11:54.104Z,6.27
2018-10-07T20:14:26.327Z,5.20
2018-10-07T20:17:02.867Z,4.50
2018-10-07T20:19:34.570Z,5.83
2018-10-07T20:22:17.343Z,6.83
2018-10-07T20:24:52.805Z,5.27
2018-10-07T20:27:25.202Z,5.27
2018-10-07T20:29:57.661Z,4.23
2018-10-07T20:32:32.087Z,4.80
2018-10-07T20:35:07.812Z,4.50
2018-10-07T20:37:56.685Z,5.10
2018-10-07T20:40:28.713Z,4.63
2018-10-07T20:43:04.084Z,4.27
2018-10-07T20:45:41.805Z,4.03
2018-10-07T20:48:16.507Z,6.23
2018-10-07T20:50:51.869Z,4.57
2018-10-07T20:53:25.635Z,4.30
2018-10-07T20:56:00.038Z,8.10
2018-10-07T20:59:59.626Z,5.10
2018-10-07T21:02:31.323Z,4.57
2018-10-07T21:05:02.910Z,4.50
2018-10-07T21:07:35.206Z,5.70
2018-10-07T21:10:08.087Z,4.87
2018-10-07T21:12:41.363Z,9.23
2018-10-07T21:15:19.092Z,13.03
2018-10-07T21:17:58.135Z,7.73
2018-10-07T21:20:44.513Z,5.43
2018-10-07T21:23:26.728Z,5.40
2018-10-07T21:25:57.546Z,2.87
2018-10-07T21:28:28.414Z,4.73
2018-10-07T21:30:58.235Z,4.03
2018-10-07T21:33:28.515Z,4.67
2018-10-07T21:36:00.031Z,5.53
2018-10-07T21:38:31.748Z,5.73
2018-10-07T21:41:02.329Z,10.40
2018-10-07T21:43:34.139Z,5.57
2018-10-07T21:46:05.824Z,7.17
2018-10-07T21:48:35.575Z,7.30
2018-10-07T21:51:06.406Z,6.50
2018-10-07T21:53:38.334Z,9.27
2018-10-07T21:56:12.649Z,6.83
2018-10-07T21:58:42.932Z,8.77
2018-10-07T22:01:12.264Z,8.93
2018-10-07T22:03:41.505Z,10.43
2018-10-07T22:06:11.499Z,7.43
2018-10-07T22:08:41.891Z,7.27
2018-10-07T22:11:11.716Z,6.70
2018-10-07T22:13:41.137Z,7.17
2018-10-07T22:16:11.288Z,29.97
2018-10-07T22:18:40.476Z,8.87
2018-10-07T22:21:09.731Z,13.53
2018-10-07T22:23:39.358Z,7.63
2018-10-07T22:26:08.517Z,7.77
2018-10-07T22:28:37.743Z,8.13
2018-10-07T22:31:08.620Z,7.80
2018-10-07T22:33:38.231Z,14.90
2018-10-07T22:36:08.253Z,7.80
2018-10-07T22:38:38.184Z,6.60
2018-10-07T22:41:07.873Z,8.67
2018-10-07T22:43:38.783Z,13.20
2018-10-07T22:46:09.335Z,8.83
2018-10-07T22:48:42.638Z,9.30
2018-10-07T22:51:12.424Z,9.73
2018-10-07T22:53:41.973Z,7.70
2018-10-07T22:56:13.271Z,15.90
2018-10-07T22:58:44.078Z,12.33
2018-10-07T23:01:14.515Z,8.50
2018-10-07T23:03:45.415Z,6.83
2018-10-07T23:06:14.850Z,6.20
2018-10-07T23:08:50.002Z,12.40
2018-10-07T23:11:22.347Z,8.20
2018-10-07T23:13:56.782Z,6.80
2018-10-07T23:16:26.028Z,8.70
2018-10-07T23:18:55.102Z,11.10
2018-10-07T23:21:29.076Z,9.47
2018-10-07T23:24:01.034Z,10.50
2018-10-07T23:26:34.447Z,7.67
2018-10-07T23:29:04.251Z,5.50
2018-10-07T23:31:33.986Z,8.67
2018-10-07T23:34:03.107Z,5.93
2018-10-07T23:36:32.197Z,6.83
2018-10-07T23:39:01.749Z,7.90
2018-10-07T23:41:31.367Z,8.00
2018-10-07T23:44:01.212Z,10.20
2018-10-07T23:46:31.622Z,7.77
2018-10-07T23:49:01.087Z,6.50
2018-10-07T23:51:31.956Z,4.70
2018-10-07T23:54:01.456Z,7.10
2018-10-07T23:56:31.002Z,5.97
2018-10-07T23:59:00.092Z,6.17
